sensor_id;sensor_type;location;lat;lon;timestamp;temperature;humidity
7411;DHT22;3747;48.628;9.058;2022-09-03T00:02:24;14.50;99.90
7411;DHT22;3747;48.628;9.058;2022-09-03T00:04:59;14.50;99.90
7411;DHT22;3747;48.628;9.058;2022-09-03T00:07:34;14.50;99.90
7411;DHT22;3747;48.628;9.058;2022-09-03T00:10:05;14.50;99.90
7411;DHT22;3747;48.628;9.058;2022-09-03T00:12:37;14.50;99.90
7411;DHT22;3747;48.628;9.058;2022-09-03T00:15:07;14.60;99.90
7411;DHT22;3747;48.628;9.058;2022-09-03T00:17:37;14.50;99.90
7411;DHT22;3747;48.628;9.058;2022-09-03T00:20:10;14.50;99.90
7411;DHT22;3747;48.628;9.058;2022-09-03T00:22:40;14.50;99.90
7411;DHT22;3747;48.628;9.058;2022-09-03T00:25:12;14.50;99.90
7411;DHT22;3747;48.628;9.058;2022-09-03T00:27:41;14.60;99.90
7411;DHT22;3747;48.628;9.058;2022-09-03T00:30:11;14.50;99.90
7411;DHT22;3747;48.628;9.058;2022-09-03T00:32:41;14.50;99.90
7411;DHT22;3747;48.628;9.058;2022-09-03T00:35:16;14.50;99.90
7411;DHT22;3747;48.628;9.058;2022-09-03T00:37:45;14.40;99.90
7411;DHT22;3747;48.628;9.058;2022-09-03T00:40:22;14.40;99.90
7411;DHT22;3747;48.628;9.058;2022-09-03T00:42:58;14.40;99.90
7411;DHT22;3747;48.628;9.058;2022-09-03T00:45:32;14.40;99.90
7411;DHT22;3747;48.628;9.058;2022-09-03T00:48:11;14.40;99.90
7411;DHT22;3747;48.628;9.058;2022-09-03T00:50:56;14.40;99.90
7411;DHT22;3747;48.628;9.058;2022-09-03T00:53:32;14.40;99.90
7411;DHT22;3747;48.628;9.058;2022-09-03T00:56:05;14.40;99.90
7411;DHT22;3747;48.628;9.058;2022-09-03T00:58:43;14.40;99.90
7411;DHT22;3747;48.628;9.058;2022-09-03T01:01:17;14.40;99.90
7411;DHT22;3747;48.628;9.058;2022-09-03T01:03:51;14.40;99.90
7411;DHT22;3747;48.628;9.058;2022-09-03T01:06:26;14.40;99.90
7411;DHT22;3747;48.628;9.058;2022-09-03T01:09:16;14.40;99.90
7411;DHT22;3747;48.628;9.058;2022-09-03T01:11:55;14.40;99.90
7411;DHT22;3747;48.628;9.058;2022-09-03T01:14:33;14.30;99.90
7411;DHT22;3747;48.628;9.058;2022-09-03T01:17:10;14.30;99.90
7411;DHT22;3747;48.628;9.058;2022-09-03T01:19:56;14.30;99.90
7411;DHT22;3747;48.628;9.058;2022-09-03T01:22:45;14.40;99.90
7411;DHT22;3747;48.628;9.058;2022-09-03T01:25:24;14.40;99.90
7411;DHT22;3747;48.628;9.058;2022-09-03T01:28:18;14.50;99.90
7411;DHT22;3747;48.628;9.058;2022-09-03T01:30:53;14.60;99.90
7411;DHT22;3747;48.628;9.058;2022-09-03T01:33:26;14.60;99.90
7411;DHT22;3747;48.628;9.058;2022-09-03T01:36:01;14.60;99.90
7411;DHT22;3747;48.628;9.058;2022-09-03T01:38:35;14.60;99.90
7411;DHT22;3747;48.628;9.058;2022-09-03T01:41:13;14.70;99.90
7411;DHT22;3747;48.628;9.058;2022-09-03T01:44:04;14.70;99.90
7411;DHT22;3747;48.628;9.058;2022-09-03T01:46:38;14.70;99.90
7411;DHT22;3747;48.628;9.058;2022-09-03T01:49:11;14.60;99.90
7411;DHT22;3747;48.628;9.058;2022-09-03T01:51:40;14.60;99.90
7411;DHT22;3747;48.628;9.058;2022-09-03T01:54:23;14.60;99.90
7411;DHT22;3747;48.628;9.058;2022-09-03T01:57:13;14.50;99.90
7411;DHT22;3747;48.628;9.058;2022-09-03T01:59:53;14.40;99.90
7411;DHT22;3747;48.628;9.058;2022-09-03T02:02:24;14.40;99.90
7411;DHT22;3747;48.628;9.058;2022-09-03T02:04:58;14.40;99.90
7411;DHT22;3747;48.628;9.058;2022-09-03T02:07:29;14.30;99.90
7411;DHT22;3747;48.628;9.058;2022-09-03T02:09:58;14.30;99.90
7411;DHT22;3747;48.628;9.058;2022-09-03T02:12:27;14.30;99.90
7411;DHT22;3747;48.628;9.058;2022-09-03T02:14:59;14.30;99.90
7411;DHT22;3747;48.628;9.058;2022-09-03T02:17:28;14.40;99.90
7411;DHT22;3747;48.628;9.058;2022-09-03T02:19:55;14.50;99.90
7411;DHT22;3747;48.628;9.058;2022-09-03T02:22:21;14.70;99.90
7411;DHT22;3747;48.628;9.058;2022-09-03T02:24:48;14.80;99.90
7411;DHT22;3747;48.628;9.058;2022-09-03T02:27:15;14.80;99.90
7411;DHT22;3747;48.628;9.058;2022-09-03T02:29:42;14.90;99.90
7411;DHT22;3747;48.628;9.058;2022-09-03T02:32:11;14.90;99.90
7411;DHT22;3747;48.628;9.058;2022-09-03T02:34:39;14.90;99.90
7411;DHT22;3747;48.628;9.058;2022-09-03T02:37:12;14.80;99.90
7411;DHT22;3747;48.628;9.058;2022-09-03T02:39:38;14.80;99.90
7411;DHT22;3747;48.628;9.058;2022-09-03T02:42:06;14.80;99.90
7411;DHT22;3747;48.628;9.058;2022-09-03T02:44:35;14.70;99.90
7411;DHT22;3747;48.628;9.058;2022-09-03T02:47:06;14.70;99.90
7411;DHT22;3747;48.628;9.058;2022-09-03T02:49:34;14.60;99.90
7411;DHT22;3747;48.628;9.058;2022-09-03T02:52:03;14.60;99.90
7411;DHT22;3747;48.628;9.058;2022-09-03T02:54:31;14.50;99.90
7411;DHT22;3747;48.628;9.058;2022-09-03T02:57:00;14.60;99.90
7411;DHT22;3747;48.628;9.058;2022-09-03T02:59:27;14.50;99.90
7411;DHT22;3747;48.628;9.058;2022-09-03T03:01:54;14.40;99.90
7411;DHT22;3747;48.628;9.058;2022-09-03T03:04:21;14.40;99.90
7411;DHT22;3747;48.628;9.058;2022-09-03T03:06:49;14.30;99.90
7411;DHT22;3747;48.628;9.058;2022-09-03T03:09:16;14.10;99.90
7411;DHT22;3747;48.628;9.058;2022-09-03T03:11:43;14.00;99.90
7411;DHT22;3747;48.628;9.058;2022-09-03T03:14:10;13.90;99.90
7411;DHT22;3747;48.628;9.058;2022-09-03T03:16:36;13.90;99.90
7411;DHT22;3747;48.628;9.058;2022-09-03T03:19:03;13.90;99.90
7411;DHT22;3747;48.628;9.058;2022-09-03T03:21:30;13.90;99.90
7411;DHT22;3747;48.628;9.058;2022-09-03T03:24:00;14.00;99.90
7411;DHT22;3747;48.628;9.058;2022-09-03T03:26:27;13.90;99.90
7411;DHT22;3747;48.628;9.058;2022-09-03T03:28:56;13.80;99.90
7411;DHT22;3747;48.628;9.058;2022-09-03T03:31:24;13.80;99.90
7411;DHT22;3747;48.628;9.058;2022-09-03T03:33:52;13.80;99.90
7411;DHT22;3747;48.628;9.058;2022-09-03T03:36:20;13.80;99.90
7411;DHT22;3747;48.628;9.058;2022-09-03T03:38:47;13.90;99.90
7411;DHT22;3747;48.628;9.058;2022-09-03T03:41:17;14.00;99.90
7411;DHT22;3747;48.628;9.058;2022-09-03T03:43:46;14.10;99.90
7411;DHT22;3747;48.628;9.058;2022-09-03T03:46:13;14.20;99.90
7411;DHT22;3747;48.628;9.058;2022-09-03T03:48:40;14.30;99.90
7411;DHT22;3747;48.628;9.058;2022-09-03T03:51:08;14.40;99.90
7411;DHT22;3747;48.628;9.058;2022-09-03T03:53:36;14.40;99.90
7411;DHT22;3747;48.628;9.058;2022-09-03T03:56:05;14.40;99.90
7411;DHT22;3747;48.628;9.058;2022-09-03T03:58:33;14.30;99.90
7411;DHT22;3747;48.628;9.058;2022-09-03T04:01:04;14.20;99.90
7411;DHT22;3747;48.628;9.058;2022-09-03T04:03:31;14.10;99.90
7411;DHT22;3747;48.628;9.058;2022-09-03T04:05:59;14.10;99.90
7411;DHT22;3747;48.628;9.058;2022-09-03T04:08:26;14.10;99.90
7411;DHT22;3747;48.628;9.058;2022-09-03T04:10:53;14.20;99.90
7411;DHT22;3747;48.628;9.058;2022-09-03T04:13:20;14.10;99.90
7411;DHT22;3747;48.628;9.058;2022-09-03T04:15:48;14.10;99.90
7411;DHT22;3747;48.628;9.058;2022-09-03T04:18:14;14.10;99.90
7411;DHT22;3747;48.628;9.058;2022-09-03T04:20:41;14.00;99.90
7411;DHT22;3747;48.628;9.058;2022-09-03T04:23:08;13.90;99.90
7411;DHT22;3747;48.628;9.058;2022-09-03T04:25:35;13.80;99.90
7411;DHT22;3747;48.628;9.058;2022-09-03T04:28:02;13.70;99.90
7411;DHT22;3747;48.628;9.058;2022-09-03T04:30:29;13.70;99.90
7411;DHT22;3747;48.628;9.058;2022-09-03T04:32:57;13.60;99.90
7411;DHT22;3747;48.628;9.058;2022-09-03T04:35:25;13.70;99.90
7411;DHT22;3747;48.628;9.058;2022-09-03T04:37:58;13.70;99.90
7411;DHT22;3747;48.628;9.058;2022-09-03T04:40:25;13.90;99.90
7411;DHT22;3747;48.628;9.058;2022-09-03T04:42:56;13.90;99.90
7411;DHT22;3747;48.628;9.058;2022-09-03T04:45:23;14.00;99.90
7411;DHT22;3747;48.628;9.058;2022-09-03T04:47:57;14.00;99.90
7411;DHT22;3747;48.628;9.058;2022-09-03T04:50:24;14.00;99.90
7411;DHT22;3747;48.628;9.058;2022-09-03T04:52:52;14.10;99.90
7411;DHT22;3747;48.628;9.058;2022-09-03T04:55:20;14.30;99.90
7411;DHT22;3747;48.628;9.058;2022-09-03T04:57:47;14.50;99.90
7411;DHT22;3747;48.628;9.058;2022-09-03T05:00:15;14.80;99.90
7411;DHT22;3747;48.628;9.058;2022-09-03T05:02:42;14.90;99.90
7411;DHT22;3747;48.628;9.058;2022-09-03T05:05:23;15.10;99.90
7411;DHT22;3747;48.628;9.058;2022-09-03T05:07:49;15.20;99.90
7411;DHT22;3747;48.628;9.058;2022-09-03T05:10:17;15.30;99.90
7411;DHT22;3747;48.628;9.058;2022-09-03T05:12:46;15.40;99.90
7411;DHT22;3747;48.628;9.058;2022-09-03T05:15:14;15.40;99.90
7411;DHT22;3747;48.628;9.058;2022-09-03T05:17:41;15.50;99.90
7411;DHT22;3747;48.628;9.058;2022-09-03T05:20:08;15.50;99.90
7411;DHT22;3747;48.628;9.058;2022-09-03T05:22:36;15.60;99.90
7411;DHT22;3747;48.628;9.058;2022-09-03T05:25:03;15.60;99.90
7411;DHT22;3747;48.628;9.058;2022-09-03T05:27:30;15.60;99.90
7411;DHT22;3747;48.628;9.058;2022-09-03T05:29:57;15.70;99.90
7411;DHT22;3747;48.628;9.058;2022-09-03T05:32:24;15.70;99.90
7411;DHT22;3747;48.628;9.058;2022-09-03T05:34:53;15.80;99.90
7411;DHT22;3747;48.628;9.058;2022-09-03T05:37:20;15.90;99.90
7411;DHT22;3747;48.628;9.058;2022-09-03T05:39:49;15.90;99.90
7411;DHT22;3747;48.628;9.058;2022-09-03T05:42:15;15.90;99.90
7411;DHT22;3747;48.628;9.058;2022-09-03T05:44:42;16.00;99.90
7411;DHT22;3747;48.628;9.058;2022-09-03T05:47:09;16.10;99.90
7411;DHT22;3747;48.628;9.058;2022-09-03T05:49:35;16.20;99.90
7411;DHT22;3747;48.628;9.058;2022-09-03T05:52:02;16.30;99.90
7411;DHT22;3747;48.628;9.058;2022-09-03T05:54:29;16.30;99.90
7411;DHT22;3747;48.628;9.058;2022-09-03T05:56:57;16.40;99.90
7411;DHT22;3747;48.628;9.058;2022-09-03T05:59:24;16.40;99.90
7411;DHT22;3747;48.628;9.058;2022-09-03T06:01:50;16.40;99.90
7411;DHT22;3747;48.628;9.058;2022-09-03T06:04:17;16.50;99.90
7411;DHT22;3747;48.628;9.058;2022-09-03T06:06:45;16.50;99.90
7411;DHT22;3747;48.628;9.058;2022-09-03T06:09:14;16.50;99.90
7411;DHT22;3747;48.628;9.058;2022-09-03T06:11:42;16.60;99.90
7411;DHT22;3747;48.628;9.058;2022-09-03T06:14:12;16.60;99.90
7411;DHT22;3747;48.628;9.058;2022-09-03T06:16:40;16.60;99.90
7411;DHT22;3747;48.628;9.058;2022-09-03T06:19:09;16.60;99.90
7411;DHT22;3747;48.628;9.058;2022-09-03T06:21:36;16.70;99.90
7411;DHT22;3747;48.628;9.058;2022-09-03T06:24:07;16.80;99.90
7411;DHT22;3747;48.628;9.058;2022-09-03T06:26:34;16.90;99.90
7411;DHT22;3747;48.628;9.058;2022-09-03T06:29:01;16.90;99.90
7411;DHT22;3747;48.628;9.058;2022-09-03T06:31:29;17.00;99.90
7411;DHT22;3747;48.628;9.058;2022-09-03T06:33:56;17.00;99.90
7411;DHT22;3747;48.628;9.058;2022-09-03T06:36:24;17.00;99.90
7411;DHT22;3747;48.628;9.058;2022-09-03T06:38:52;17.10;99.90
7411;DHT22;3747;48.628;9.058;2022-09-03T06:41:21;17.10;99.90
7411;DHT22;3747;48.628;9.058;2022-09-03T06:43:50;17.20;99.90
7411;DHT22;3747;48.628;9.058;2022-09-03T06:46:18;17.30;99.90
7411;DHT22;3747;48.628;9.058;2022-09-03T06:48:46;17.30;99.90
7411;DHT22;3747;48.628;9.058;2022-09-03T06:51:15;17.40;99.90
7411;DHT22;3747;48.628;9.058;2022-09-03T06:53:44;17.40;99.90
7411;DHT22;3747;48.628;9.058;2022-09-03T06:56:12;17.50;99.90
7411;DHT22;3747;48.628;9.058;2022-09-03T06:58:41;17.60;99.90
7411;DHT22;3747;48.628;9.058;2022-09-03T07:01:10;17.70;99.90
7411;DHT22;3747;48.628;9.058;2022-09-03T07:03:38;17.70;99.90
7411;DHT22;3747;48.628;9.058;2022-09-03T07:06:09;17.80;99.90
7411;DHT22;3747;48.628;9.058;2022-09-03T07:08:36;17.80;99.90
7411;DHT22;3747;48.628;9.058;2022-09-03T07:11:05;17.90;99.90
7411;DHT22;3747;48.628;9.058;2022-09-03T07:13:33;17.90;99.90
7411;DHT22;3747;48.628;9.058;2022-09-03T07:16:01;18.10;99.90
7411;DHT22;3747;48.628;9.058;2022-09-03T07:18:29;18.20;99.90
7411;DHT22;3747;48.628;9.058;2022-09-03T07:20:57;18.30;99.90
7411;DHT22;3747;48.628;9.058;2022-09-03T07:23:27;18.20;99.90
7411;DHT22;3747;48.628;9.058;2022-09-03T07:25:54;18.10;99.90
7411;DHT22;3747;48.628;9.058;2022-09-03T07:28:21;18.00;99.90
7411;DHT22;3747;48.628;9.058;2022-09-03T07:30:49;18.10;99.90
7411;DHT22;3747;48.628;9.058;2022-09-03T07:33:15;18.20;99.90
7411;DHT22;3747;48.628;9.058;2022-09-03T07:35:42;18.10;99.90
7411;DHT22;3747;48.628;9.058;2022-09-03T07:38:09;18.10;99.90
7411;DHT22;3747;48.628;9.058;2022-09-03T07:40:37;18.30;99.90
7411;DHT22;3747;48.628;9.058;2022-09-03T07:43:13;18.40;99.90
7411;DHT22;3747;48.628;9.058;2022-09-03T07:45:49;18.80;99.90
7411;DHT22;3747;48.628;9.058;2022-09-03T07:48:24;19.30;99.90
7411;DHT22;3747;48.628;9.058;2022-09-03T07:50:50;19.80;99.90
7411;DHT22;3747;48.628;9.058;2022-09-03T07:53:18;20.30;99.90
7411;DHT22;3747;48.628;9.058;2022-09-03T07:56:02;20.80;99.90
7411;DHT22;3747;48.628;9.058;2022-09-03T07:58:31;21.80;99.90
7411;DHT22;3747;48.628;9.058;2022-09-03T08:01:03;22.70;99.90
7411;DHT22;3747;48.628;9.058;2022-09-03T08:03:30;23.50;99.90
7411;DHT22;3747;48.628;9.058;2022-09-03T08:05:59;23.90;99.90
7411;DHT22;3747;48.628;9.058;2022-09-03T08:08:26;23.90;99.90
7411;DHT22;3747;48.628;9.058;2022-09-03T08:10:53;22.80;99.90
7411;DHT22;3747;48.628;9.058;2022-09-03T08:13:22;21.20;99.90
7411;DHT22;3747;48.628;9.058;2022-09-03T08:15:53;21.10;99.90
7411;DHT22;3747;48.628;9.058;2022-09-03T08:18:20;21.80;99.90
7411;DHT22;3747;48.628;9.058;2022-09-03T08:20:47;21.90;99.90
7411;DHT22;3747;48.628;9.058;2022-09-03T08:23:14;22.40;99.90
7411;DHT22;3747;48.628;9.058;2022-09-03T08:25:57;22.70;99.90
7411;DHT22;3747;48.628;9.058;2022-09-03T08:28:35;22.80;99.90
7411;DHT22;3747;48.628;9.058;2022-09-03T08:31:06;23.20;99.90
7411;DHT22;3747;48.628;9.058;2022-09-03T08:33:34;24.10;99.90
7411;DHT22;3747;48.628;9.058;2022-09-03T08:36:04;24.70;99.90
7411;DHT22;3747;48.628;9.058;2022-09-03T08:38:32;25.00;99.90
7411;DHT22;3747;48.628;9.058;2022-09-03T08:41:03;25.50;99.90
7411;DHT22;3747;48.628;9.058;2022-09-03T08:43:42;25.30;99.90
7411;DHT22;3747;48.628;9.058;2022-09-03T08:46:37;25.40;99.90
7411;DHT22;3747;48.628;9.058;2022-09-03T08:49:09;25.50;99.90
7411;DHT22;3747;48.628;9.058;2022-09-03T08:51:55;25.80;99.90
7411;DHT22;3747;48.628;9.058;2022-09-03T08:54:26;25.90;99.90
7411;DHT22;3747;48.628;9.058;2022-09-03T08:56:57;25.50;99.90
7411;DHT22;3747;48.628;9.058;2022-09-03T08:59:27;25.50;99.90
7411;DHT22;3747;48.628;9.058;2022-09-03T09:01:57;24.60;99.90
7411;DHT22;3747;48.628;9.058;2022-09-03T09:04:38;24.10;99.90
7411;DHT22;3747;48.628;9.058;2022-09-03T09:07:16;24.10;99.90
7411;DHT22;3747;48.628;9.058;2022-09-03T09:09:47;23.80;99.90
7411;DHT22;3747;48.628;9.058;2022-09-03T09:12:27;23.50;99.90
7411;DHT22;3747;48.628;9.058;2022-09-03T09:15:10;23.30;99.90
7411;DHT22;3747;48.628;9.058;2022-09-03T09:20:34;23.70;99.90
7411;DHT22;3747;48.628;9.058;2022-09-03T09:23:09;23.60;99.90
7411;DHT22;3747;48.628;9.058;2022-09-03T09:25:43;23.50;99.90
7411;DHT22;3747;48.628;9.058;2022-09-03T09:28:16;23.40;99.90
7411;DHT22;3747;48.628;9.058;2022-09-03T09:30:46;23.40;99.90
7411;DHT22;3747;48.628;9.058;2022-09-03T09:33:22;23.90;99.90
7411;DHT22;3747;48.628;9.058;2022-09-03T09:35:49;24.10;99.90
7411;DHT22;3747;48.628;9.058;2022-09-03T09:38:39;24.50;99.90
7411;DHT22;3747;48.628;9.058;2022-09-03T09:41:10;24.40;99.90
7411;DHT22;3747;48.628;9.058;2022-09-03T09:43:38;24.00;99.90
7411;DHT22;3747;48.628;9.058;2022-09-03T09:46:11;24.30;99.90
7411;DHT22;3747;48.628;9.058;2022-09-03T09:48:46;24.70;99.90
7411;DHT22;3747;48.628;9.058;2022-09-03T09:51:24;24.50;99.90
7411;DHT22;3747;48.628;9.058;2022-09-03T09:54:00;24.40;99.90
7411;DHT22;3747;48.628;9.058;2022-09-03T09:56:27;24.60;99.90
7411;DHT22;3747;48.628;9.058;2022-09-03T09:59:13;24.00;99.90
7411;DHT22;3747;48.628;9.058;2022-09-03T10:01:47;22.90;99.90
7411;DHT22;3747;48.628;9.058;2022-09-03T10:04:22;23.10;99.90
7411;DHT22;3747;48.628;9.058;2022-09-03T10:06:53;23.30;99.90
7411;DHT22;3747;48.628;9.058;2022-09-03T10:09:22;23.50;99.90
7411;DHT22;3747;48.628;9.058;2022-09-03T10:12:06;23.90;99.90
7411;DHT22;3747;48.628;9.058;2022-09-03T10:14:43;24.20;99.90
7411;DHT22;3747;48.628;9.058;2022-09-03T10:17:26;23.60;99.90
7411;DHT22;3747;48.628;9.058;2022-09-03T10:19:57;23.60;99.90
7411;DHT22;3747;48.628;9.058;2022-09-03T10:22:53;23.90;99.90
7411;DHT22;3747;48.628;9.058;2022-09-03T10:25:20;25.50;99.90
7411;DHT22;3747;48.628;9.058;2022-09-03T10:27:50;26.90;99.90
7411;DHT22;3747;48.628;9.058;2022-09-03T10:30:18;26.10;99.90
7411;DHT22;3747;48.628;9.058;2022-09-03T10:32:55;27.20;99.90
7411;DHT22;3747;48.628;9.058;2022-09-03T10:35:28;25.30;99.90
7411;DHT22;3747;48.628;9.058;2022-09-03T10:38:06;24.40;99.90
7411;DHT22;3747;48.628;9.058;2022-09-03T10:40:37;25.10;99.90
7411;DHT22;3747;48.628;9.058;2022-09-03T10:43:26;24.70;99.90
7411;DHT22;3747;48.628;9.058;2022-09-03T10:46:01;24.80;99.90
7411;DHT22;3747;48.628;9.058;2022-09-03T10:48:44;24.70;99.90
7411;DHT22;3747;48.628;9.058;2022-09-03T10:51:18;24.70;99.90
7411;DHT22;3747;48.628;9.058;2022-09-03T10:54:10;24.20;99.90
7411;DHT22;3747;48.628;9.058;2022-09-03T10:56:48;24.30;99.90
7411;DHT22;3747;48.628;9.058;2022-09-03T10:59:29;23.90;99.90
7411;DHT22;3747;48.628;9.058;2022-09-03T11:02:12;23.80;99.90
7411;DHT22;3747;48.628;9.058;2022-09-03T11:04:50;23.50;99.90
7411;DHT22;3747;48.628;9.058;2022-09-03T11:07:20;23.20;99.90
7411;DHT22;3747;48.628;9.058;2022-09-03T11:09:52;23.10;99.90
7411;DHT22;3747;48.628;9.058;2022-09-03T11:12:37;22.80;99.90
7411;DHT22;3747;48.628;9.058;2022-09-03T11:15:06;23.00;99.90
7411;DHT22;3747;48.628;9.058;2022-09-03T11:17:38;23.10;99.90
7411;DHT22;3747;48.628;9.058;2022-09-03T11:20:16;23.10;99.90
7411;DHT22;3747;48.628;9.058;2022-09-03T11:22:45;23.00;99.90
7411;DHT22;3747;48.628;9.058;2022-09-03T11:25:14;22.70;99.90
7411;DHT22;3747;48.628;9.058;2022-09-03T11:27:53;22.50;99.90
7411;DHT22;3747;48.628;9.058;2022-09-03T11:30:25;22.30;99.90
7411;DHT22;3747;48.628;9.058;2022-09-03T11:32:57;22.00;99.90
7411;DHT22;3747;48.628;9.058;2022-09-03T11:35:36;21.80;99.90
7411;DHT22;3747;48.628;9.058;2022-09-03T11:38:05;21.50;99.90
7411;DHT22;3747;48.628;9.058;2022-09-03T11:40:37;21.30;99.90
7411;DHT22;3747;48.628;9.058;2022-09-03T11:43:06;20.90;99.90
7411;DHT22;3747;48.628;9.058;2022-09-03T11:45:38;20.50;99.90
7411;DHT22;3747;48.628;9.058;2022-09-03T11:48:17;20.00;99.90
7411;DHT22;3747;48.628;9.058;2022-09-03T11:50:54;19.60;99.90
7411;DHT22;3747;48.628;9.058;2022-09-03T11:53:33;19.10;99.90
7411;DHT22;3747;48.628;9.058;2022-09-03T11:56:11;18.70;99.90
7411;DHT22;3747;48.628;9.058;2022-09-03T11:58:41;18.30;99.90
7411;DHT22;3747;48.628;9.058;2022-09-03T12:01:10;18.00;99.90
7411;DHT22;3747;48.628;9.058;2022-09-03T12:03:42;17.60;99.90
7411;DHT22;3747;48.628;9.058;2022-09-03T12:09:26;15.90;99.90
7411;DHT22;3747;48.628;9.058;2022-09-03T12:12:11;15.50;99.90
7411;DHT22;3747;48.628;9.058;2022-09-03T12:14:47;15.30;99.90
7411;DHT22;3747;48.628;9.058;2022-09-03T12:17:29;15.10;99.90
7411;DHT22;3747;48.628;9.058;2022-09-03T12:19:58;14.90;99.90
7411;DHT22;3747;48.628;9.058;2022-09-03T12:22:28;14.70;99.90
7411;DHT22;3747;48.628;9.058;2022-09-03T12:25:07;14.80;99.90
7411;DHT22;3747;48.628;9.058;2022-09-03T12:27:35;14.70;99.90
7411;DHT22;3747;48.628;9.058;2022-09-03T12:30:04;14.80;99.90
7411;DHT22;3747;48.628;9.058;2022-09-03T12:32:32;14.80;99.90
7411;DHT22;3747;48.628;9.058;2022-09-03T12:35:10;14.80;99.90
7411;DHT22;3747;48.628;9.058;2022-09-03T12:37:41;14.80;99.90
7411;DHT22;3747;48.628;9.058;2022-09-03T12:40:17;14.80;99.90
7411;DHT22;3747;48.628;9.058;2022-09-03T12:42:46;14.90;99.90
7411;DHT22;3747;48.628;9.058;2022-09-03T12:45:13;15.00;99.90
7411;DHT22;3747;48.628;9.058;2022-09-03T12:47:41;15.20;99.90
7411;DHT22;3747;48.628;9.058;2022-09-03T12:50:11;15.40;99.90
7411;DHT22;3747;48.628;9.058;2022-09-03T12:52:42;15.50;99.90
7411;DHT22;3747;48.628;9.058;2022-09-03T12:55:20;15.70;99.90
7411;DHT22;3747;48.628;9.058;2022-09-03T12:57:53;15.70;99.90
7411;DHT22;3747;48.628;9.058;2022-09-03T13:00:21;15.80;99.90
7411;DHT22;3747;48.628;9.058;2022-09-03T13:02:52;16.00;99.90
7411;DHT22;3747;48.628;9.058;2022-09-03T13:05:23;16.10;99.90
7411;DHT22;3747;48.628;9.058;2022-09-03T13:07:55;16.20;99.90
7411;DHT22;3747;48.628;9.058;2022-09-03T13:10:26;16.30;99.90
7411;DHT22;3747;48.628;9.058;2022-09-03T13:12:58;16.50;99.90
7411;DHT22;3747;48.628;9.058;2022-09-03T13:15:33;16.70;99.90
7411;DHT22;3747;48.628;9.058;2022-09-03T13:18:17;16.80;99.90
7411;DHT22;3747;48.628;9.058;2022-09-03T13:20:55;17.20;99.90
7411;DHT22;3747;48.628;9.058;2022-09-03T13:23:59;17.60;99.90
7411;DHT22;3747;48.628;9.058;2022-09-03T13:26:37;18.50;99.90
7411;DHT22;3747;48.628;9.058;2022-09-03T13:29:27;19.90;99.90
7411;DHT22;3747;48.628;9.058;2022-09-03T13:31:59;20.80;99.90
7411;DHT22;3747;48.628;9.058;2022-09-03T13:34:31;21.30;99.90
7411;DHT22;3747;48.628;9.058;2022-09-03T13:37:06;21.60;99.90
7411;DHT22;3747;48.628;9.058;2022-09-03T13:39:42;21.90;99.90
7411;DHT22;3747;48.628;9.058;2022-09-03T13:42:16;21.30;99.90
7411;DHT22;3747;48.628;9.058;2022-09-03T13:44:51;21.30;99.90
7411;DHT22;3747;48.628;9.058;2022-09-03T13:47:26;21.20;99.90
7411;DHT22;3747;48.628;9.058;2022-09-03T13:50:00;21.20;99.90
7411;DHT22;3747;48.628;9.058;2022-09-03T13:52:49;21.20;99.90
7411;DHT22;3747;48.628;9.058;2022-09-03T13:55:27;21.30;99.90
7411;DHT22;3747;48.628;9.058;2022-09-03T13:57:56;20.90;99.90
7411;DHT22;3747;48.628;9.058;2022-09-03T14:00:29;20.30;99.90
7411;DHT22;3747;48.628;9.058;2022-09-03T14:03:05;20.10;99.90
7411;DHT22;3747;48.628;9.058;2022-09-03T14:05:40;21.30;99.90
7411;DHT22;3747;48.628;9.058;2022-09-03T14:08:19;22.50;99.90
7411;DHT22;3747;48.628;9.058;2022-09-03T14:10:59;23.30;99.90
7411;DHT22;3747;48.628;9.058;2022-09-03T14:13:37;23.70;99.90
7411;DHT22;3747;48.628;9.058;2022-09-03T14:16:10;23.40;99.90
7411;DHT22;3747;48.628;9.058;2022-09-03T14:18:43;23.60;99.90
7411;DHT22;3747;48.628;9.058;2022-09-03T14:21:20;24.70;99.90
7411;DHT22;3747;48.628;9.058;2022-09-03T14:23:52;25.40;99.90
7411;DHT22;3747;48.628;9.058;2022-09-03T14:26:26;25.80;99.90
7411;DHT22;3747;48.628;9.058;2022-09-03T14:28:59;26.00;99.90
7411;DHT22;3747;48.628;9.058;2022-09-03T14:31:40;25.90;99.90
7411;DHT22;3747;48.628;9.058;2022-09-03T14:34:24;26.50;99.90
7411;DHT22;3747;48.628;9.058;2022-09-03T14:36:57;27.10;99.90
7411;DHT22;3747;48.628;9.058;2022-09-03T14:39:32;26.60;99.90
7411;DHT22;3747;48.628;9.058;2022-09-03T14:42:36;26.20;99.90
7411;DHT22;3747;48.628;9.058;2022-09-03T14:45:16;25.10;99.90
7411;DHT22;3747;48.628;9.058;2022-09-03T14:50:44;22.90;99.90
7411;DHT22;3747;48.628;9.058;2022-09-03T14:53:35;22.50;99.90
7411;DHT22;3747;48.628;9.058;2022-09-03T14:56:16;21.80;99.90
7411;DHT22;3747;48.628;9.058;2022-09-03T14:59:12;21.70;99.90
7411;DHT22;3747;48.628;9.058;2022-09-03T15:01:46;22.50;99.90
7411;DHT22;3747;48.628;9.058;2022-09-03T15:04:31;22.50;99.90
7411;DHT22;3747;48.628;9.058;2022-09-03T15:07:16;23.10;99.90
7411;DHT22;3747;48.628;9.058;2022-09-03T15:09:53;23.50;99.90
7411;DHT22;3747;48.628;9.058;2022-09-03T15:12:31;24.80;99.90
7411;DHT22;3747;48.628;9.058;2022-09-03T15:15:07;25.40;99.90
7411;DHT22;3747;48.628;9.058;2022-09-03T15:17:53;25.40;99.90
7411;DHT22;3747;48.628;9.058;2022-09-03T15:20:29;25.80;99.90
7411;DHT22;3747;48.628;9.058;2022-09-03T15:23:18;25.40;99.90
7411;DHT22;3747;48.628;9.058;2022-09-03T15:26:25;24.70;99.90
7411;DHT22;3747;48.628;9.058;2022-09-03T15:29:17;23.80;99.90
7411;DHT22;3747;48.628;9.058;2022-09-03T15:31:54;24.40;99.90
7411;DHT22;3747;48.628;9.058;2022-09-03T15:34:36;25.20;99.90
7411;DHT22;3747;48.628;9.058;2022-09-03T15:37:10;26.10;99.90
7411;DHT22;3747;48.628;9.058;2022-09-03T15:39:42;25.80;99.90
7411;DHT22;3747;48.628;9.058;2022-09-03T15:42:16;25.00;99.90
7411;DHT22;3747;48.628;9.058;2022-09-03T15:44:47;24.00;99.90
7411;DHT22;3747;48.628;9.058;2022-09-03T15:47:31;23.20;99.90
7411;DHT22;3747;48.628;9.058;2022-09-03T15:50:28;22.90;99.90
7411;DHT22;3747;48.628;9.058;2022-09-03T15:53:00;22.50;99.90
7411;DHT22;3747;48.628;9.058;2022-09-03T15:55:32;22.80;99.90
7411;DHT22;3747;48.628;9.058;2022-09-03T15:58:05;24.30;99.90
7411;DHT22;3747;48.628;9.058;2022-09-03T16:00:59;26.00;99.90
7411;DHT22;3747;48.628;9.058;2022-09-03T16:03:35;26.30;99.90
7411;DHT22;3747;48.628;9.058;2022-09-03T16:06:19;27.40;99.90
7411;DHT22;3747;48.628;9.058;2022-09-03T16:08:52;28.30;99.90
7411;DHT22;3747;48.628;9.058;2022-09-03T16:11:28;27.90;99.90
7411;DHT22;3747;48.628;9.058;2022-09-03T16:14:03;27.50;99.90
7411;DHT22;3747;48.628;9.058;2022-09-03T16:16:46;26.50;99.90
7411;DHT22;3747;48.628;9.058;2022-09-03T16:19:22;25.20;99.90
7411;DHT22;3747;48.628;9.058;2022-09-03T16:21:56;24.30;99.90
7411;DHT22;3747;48.628;9.058;2022-09-03T16:24:29;23.40;99.90
7411;DHT22;3747;48.628;9.058;2022-09-03T16:27:02;22.90;99.90
7411;DHT22;3747;48.628;9.058;2022-09-03T16:29:30;22.20;99.90
7411;DHT22;3747;48.628;9.058;2022-09-03T16:34:56;21.20;99.90
7411;DHT22;3747;48.628;9.058;2022-09-03T16:37:31;21.00;99.90
7411;DHT22;3747;48.628;9.058;2022-09-03T16:40:10;21.00;99.90
7411;DHT22;3747;48.628;9.058;2022-09-03T16:42:43;21.80;99.90
7411;DHT22;3747;48.628;9.058;2022-09-03T16:45:18;23.30;99.90
7411;DHT22;3747;48.628;9.058;2022-09-03T16:48:07;24.50;99.90
7411;DHT22;3747;48.628;9.058;2022-09-03T16:50:46;25.00;99.90
7411;DHT22;3747;48.628;9.058;2022-09-03T16:53:21;25.50;99.90